Time;durP1;ratioP1;P1;durP2;ratioP2;P2;SDS_P1;SDS_P2;PMS_P1;PMS_P2;Temp;Humidity;BMP_temperature;BMP_pressure;BME280_temperature;BME280_humidity;BME280_pressure;Samples;Min_cycle;Max_cycle;Signal;HPM_P1;HPM_P2
2023/02/28 00:01:23;;;;;;;5.85;3.05;;;;;;;2.36;67.77;102386.53;4963705;28;20563;-58
2023/02/28 00:03:50;;;;;;;6.65;3.28;;;;;;;2.36;67.84;102387.38;4967610;28;20075;-58
2023/02/28 00:06:17;;;;;;;7.07;3.10;;;;;;;2.38;67.63;102388.25;4972307;28;20069;-60
2023/02/28 00:08:44;;;;;;;7.78;3.35;;;;;;;2.40;68.03;102385.66;4967938;28;20051;-56
2023/02/28 00:11:13;;;;;;;8.88;3.55;;;;;;;2.40;67.72;102389.13;4964098;28;20150;-56
2023/02/28 00:13:42;;;;;;;5.40;2.65;;;;;;;2.38;67.70;102387.38;4969367;28;20533;-59
2023/02/28 00:16:18;;;;;;;7.30;3.42;;;;;;;2.41;68.19;102385.66;4960798;28;20055;-61
2023/02/28 00:18:47;;;;;;;7.20;3.10;;;;;;;2.43;67.79;102386.56;4963264;28;20590;-59
2023/02/28 00:21:15;;;;;;;7.65;3.33;;;;;;;2.39;68.03;102390.00;4965279;28;20061;-58
2023/02/28 00:23:43;;;;;;;6.15;3.22;;;;;;;2.28;68.24;102384.75;4971026;28;20717;-57
2023/02/28 00:26:10;;;;;;;7.63;3.47;;;;;;;2.31;68.55;102385.63;4972877;28;20050;-60
2023/02/28 00:28:38;;;;;;;8.07;3.22;;;;;;;2.34;68.46;102385.63;4964987;28;20065;-61
2023/02/28 00:31:05;;;;;;;8.68;3.42;;;;;;;2.38;68.44;102389.97;4960868;28;20054;-59
2023/02/28 00:33:32;;;;;;;8.20;3.10;;;;;;;2.38;68.79;102384.78;4967479;28;20727;-62
2023/02/28 00:36:08;;;;;;;9.65;3.92;;;;;;;2.38;68.70;102392.56;4968689;28;20046;-59
2023/02/28 00:38:35;;;;;;;7.70;3.50;;;;;;;2.39;68.38;102397.81;4969009;28;20057;-59
2023/02/28 00:41:06;;;;;;;5.95;3.35;;;;;;;2.33;68.64;102400.34;4960425;28;20047;-60
2023/02/28 00:43:34;;;;;;;8.38;3.88;;;;;;;2.32;68.87;102390.84;4962037;28;20059;-59
2023/02/28 00:46:02;;;;;;;7.75;3.42;;;;;;;2.37;68.99;102389.13;4969124;28;20067;-62
2023/02/28 00:48:29;;;;;;;9.55;3.92;;;;;;;2.38;68.71;102403.84;4968928;28;20147;-59
2023/02/28 00:50:56;;;;;;;6.00;3.38;;;;;;;2.38;68.99;102396.03;4965304;28;20055;-60
2023/02/28 00:53:25;;;;;;;7.10;3.42;;;;;;;2.41;69.19;102392.59;4959774;28;20047;-61
2023/02/28 00:55:52;;;;;;;8.40;3.40;;;;;;;2.43;68.50;102399.56;4965705;28;20161;-59
2023/02/28 00:58:19;;;;;;;9.70;4.03;;;;;;;2.44;68.62;102395.22;4965262;28;20147;-61
2023/02/28 01:00:48;;;;;;;7.25;3.40;;;;;;;2.43;69.10;102402.16;4968593;28;20050;-61
2023/02/28 01:03:17;;;;;;;7.38;3.58;;;;;;;2.44;68.67;102401.28;4969164;28;20066;-64
2023/02/28 01:05:44;;;;;;;7.15;3.92;;;;;;;2.41;68.88;102396.06;4970053;28;20057;-61
2023/02/28 01:08:13;;;;;;;7.68;3.33;;;;;;;2.41;69.10;102396.06;4967144;28;20151;-61
2023/02/28 01:10:41;;;;;;;7.78;3.88;;;;;;;2.39;68.88;102391.75;4961142;28;20102;-61
2023/02/28 01:13:08;;;;;;;13.15;4.15;;;;;;;2.37;69.30;102394.31;4974392;28;20051;-62
2023/02/28 01:15:35;;;;;;;9.07;3.72;;;;;;;2.38;68.74;102393.44;4969681;28;20057;-59
2023/02/28 01:18:02;;;;;;;9.85;4.20;;;;;;;2.39;69.10;102390.00;4970852;28;20054;-60
2023/02/28 01:20:29;;;;;;;8.93;3.92;;;;;;;2.35;69.41;102390.00;4971444;28;20055;-61
2023/02/28 01:22:57;;;;;;;9.23;4.05;;;;;;;2.28;69.28;102395.16;4968845;28;20545;-60
2023/02/28 01:25:24;;;;;;;8.75;4.00;;;;;;;2.29;69.38;102390.81;4968360;28;20055;-59
2023/02/28 01:27:52;;;;;;;8.32;3.65;;;;;;;2.31;69.49;102378.72;4983173;28;20137;-62
2023/02/28 01:30:19;;;;;;;10.85;4.53;;;;;;;2.28;69.36;102374.34;4980818;28;23285;-61
2023/02/28 01:32:46;;;;;;;8.27;4.22;;;;;;;2.26;69.73;102375.22;4979593;28;20046;-60
2023/02/28 01:35:13;;;;;;;8.32;4.18;;;;;;;2.27;69.55;102383.03;4972252;28;20100;-58
2023/02/28 01:37:40;;;;;;;9.98;4.28;;;;;;;2.31;70.02;102378.72;4973968;28;20072;-63
2023/02/28 01:40:10;;;;;;;11.05;4.50;;;;;;;2.30;69.39;102376.97;4969917;28;20138;-62
2023/02/28 01:42:37;;;;;;;9.73;4.60;;;;;;;2.27;69.54;102376.97;4973256;28;20050;-60
2023/02/28 01:45:17;;;;;;;9.18;3.85;;;;;;;2.24;69.42;102374.34;4982053;28;20068;-60
2023/02/28 01:47:46;;;;;;;9.13;4.78;;;;;;;2.22;69.43;102374.34;4974753;28;20137;-64
2023/02/28 01:50:16;;;;;;;13.95;4.60;;;;;;;2.18;69.75;102370.00;4975654;28;20054;-59
2023/02/28 01:52:45;;;;;;;7.90;4.10;;;;;;;2.15;69.99;102374.31;4970438;28;20046;-62
2023/02/28 01:55:13;;;;;;;8.35;4.57;;;;;;;2.12;69.96;102382.97;4971710;28;20074;-60
2023/02/28 01:57:49;;;;;;;9.18;4.68;;;;;;;2.11;70.27;102378.63;4962147;28;20451;-61
2023/02/28 02:00:19;;;;;;;13.25;4.80;;;;;;;2.10;70.04;102384.69;4972159;28;20065;-62
2023/02/28 02:02:49;;;;;;;11.90;4.97;;;;;;;2.05;69.87;102380.34;4972789;28;20058;-57
2023/02/28 02:05:22;;;;;;;10.52;5.20;;;;;;;2.00;70.10;102375.13;4971491;28;20554;-57
2023/02/28 02:07:54;;;;;;;10.48;4.85;;;;;;;2.00;70.24;102375.97;4971774;28;20407;-59
2023/02/28 02:10:25;;;;;;;9.85;4.68;;;;;;;1.98;70.44;102379.41;4963834;28;20046;-59
2023/02/28 02:13:12;;;;;;;11.05;4.85;;;;;;;1.96;70.23;102371.63;4966304;28;20086;-59
2023/02/28 02:16:01;;;;;;;14.32;5.18;;;;;;;1.95;70.27;102367.31;4982383;28;20121;-59
2023/02/28 02:18:43;;;;;;;14.05;4.97;;;;;;;1.94;70.11;102372.50;4971190;28;20133;-57
2023/02/28 02:21:27;;;;;;;11.48;4.90;;;;;;;1.91;70.23;102378.53;4963165;28;20065;-59
2023/02/28 02:24:20;;;;;;;9.55;4.88;;;;;;;1.90;70.21;102373.34;4967249;28;20062;-61
2023/02/28 02:26:55;;;;;;;10.10;4.97;;;;;;;1.88;70.13;102372.44;4968644;28;20059;-59
2023/02/28 02:29:51;;;;;;;12.57;4.88;;;;;;;1.86;70.20;102363.81;4964053;28;20077;-63
2023/02/28 02:32:35;;;;;;;9.23;4.70;;;;;;;1.80;70.33;102367.22;4970045;28;20703;-60
2023/02/28 02:35:22;;;;;;;14.00;5.03;;;;;;;1.75;70.45;102372.38;4973237;28;20134;-57
2023/02/28 02:38:32;;;;;;;9.80;5.18;;;;;;;1.69;70.52;102371.50;4968636;28;20058;-56
2023/02/28 02:41:08;;;;;;;11.50;4.80;;;;;;;1.65;70.45;102375.78;4955528;28;20123;-58
2023/02/28 02:43:36;;;;;;;10.30;5.15;;;;;;;1.63;70.76;102372.34;4965955;28;20653;-58
2023/02/28 02:46:12;;;;;;;12.10;5.15;;;;;;;1.62;70.75;102374.91;4972490;28;20099;-59
2023/02/28 02:48:40;;;;;;;11.15;5.50;;;;;;;1.58;70.79;102373.19;4972341;28;20515;-59
2023/02/28 02:51:13;;;;;;;10.40;5.30;;;;;;;1.56;70.74;102373.16;4972924;28;20061;-60
2023/02/28 02:53:52;;;;;;;11.35;5.65;;;;;;;1.53;70.69;102373.09;4983298;28;20097;-61
2023/02/28 02:56:21;;;;;;;10.98;5.03;;;;;;;1.51;70.55;102367.91;4964359;28;20474;-58
2023/02/28 02:58:50;;;;;;;11.23;4.60;;;;;;;1.46;70.56;102379.13;4966710;28;20075;-58
2023/02/28 03:01:27;;;;;;;9.70;4.60;;;;;;;1.43;71.05;102376.50;4974592;28;20072;-57
2023/02/28 03:04:01;;;;;;;11.52;4.65;;;;;;;1.42;70.76;102375.66;4969607;28;20065;-60
2023/02/28 03:06:28;;;;;;;10.27;5.38;;;;;;;1.39;70.65;102377.34;4970999;28;20664;-57
2023/02/28 03:08:55;;;;;;;11.27;5.43;;;;;;;1.32;71.07;102376.44;4970429;28;20558;-59
2023/02/28 03:11:23;;;;;;;13.95;6.47;;;;;;;1.26;71.35;102377.28;4972829;28;20055;-58
2023/02/28 03:14:09;;;;;;;10.77;5.88;;;;;;;1.25;71.15;102382.44;4974126;28;20072;-60
2023/02/28 03:16:42;;;;;;;13.32;5.90;;;;;;;1.25;71.02;102383.31;4967542;28;20423;-59
2023/02/28 03:19:31;;;;;;;14.77;6.93;;;;;;;1.25;71.18;102385.03;4966045;28;20057;-58
2023/02/28 03:22:13;;;;;;;11.32;5.93;;;;;;;1.25;70.89;102390.22;4965888;28;20250;-60
2023/02/28 03:25:31;;;;;;;11.48;5.80;;;;;;;1.24;71.27;102385.91;4966225;28;20057;-60
2023/02/28 03:28:17;;;;;;;12.07;5.47;;;;;;;1.21;70.93;102391.91;4953923;28;20077;-58
2023/02/28 03:30:53;;;;;;;13.88;5.13;;;;;;;1.20;70.91;102397.09;4968847;28;20536;-58
2023/02/28 03:33:29;;;;;;;13.80;6.65;;;;;;;1.18;70.86;102391.91;4969330;28;20181;-60
2023/02/28 03:36:00;;;;;;;14.07;6.40;;;;;;;1.16;71.00;102390.16;4962719;28;20065;-62
2023/02/28 03:38:41;;;;;;;13.82;5.97;;;;;;;1.14;71.20;102387.56;4969691;28;20051;-59
2023/02/28 03:41:23;;;;;;;13.65;5.97;;;;;;;1.10;70.79;102383.19;4966146;28;20352;-60
2023/02/28 03:43:55;;;;;;;18.33;6.60;;;;;;;1.08;70.83;102392.69;4969584;28;20217;-60
2023/02/28 03:46:26;;;;;;;10.48;5.50;;;;;;;1.04;71.35;102393.53;4964938;28;20051;-62
2023/02/28 03:49:07;;;;;;;11.85;6.45;;;;;;;1.04;71.19;102396.13;4967563;28;20069;-58
2023/02/28 03:51:36;;;;;;;11.85;5.93;;;;;;;1.03;70.85;102402.13;4970794;28;20061;-61
2023/02/28 03:54:08;;;;;;;14.10;6.30;;;;;;;1.03;71.02;102394.34;4964999;28;20515;-58
2023/02/28 03:56:43;;;;;;;16.20;7.10;;;;;;;1.04;70.77;102396.13;4968291;28;20050;-56
2023/02/28 03:59:22;;;;;;;14.52;6.25;;;;;;;1.01;70.89;102396.09;4970765;28;20050;-58
2023/02/28 04:01:50;;;;;;;10.93;5.80;;;;;;;0.99;70.81;102395.19;4969190;28;20051;-60
2023/02/28 04:04:18;;;;;;;14.32;6.25;;;;;;;0.95;70.97;102396.91;4968145;28;20051;-60
2023/02/28 04:06:45;;;;;;;13.52;6.28;;;;;;;0.92;71.17;102399.47;4969658;28;20534;-57
2023/02/28 04:09:13;;;;;;;11.13;5.10;;;;;;;0.87;71.05;102401.13;4971752;28;20043;-56
2023/02/28 04:11:53;;;;;;;12.48;6.05;;;;;;;0.84;71.33;102400.25;4967102;28;20069;-60
2023/02/28 04:14:20;;;;;;;11.43;5.55;;;;;;;0.80;70.99;102399.34;4965705;28;20741;-61
2023/02/28 04:16:47;;;;;;;11.57;5.10;;;;;;;0.80;71.23;102399.34;4966540;28;20137;-60
2023/02/28 04:19:14;;;;;;;14.50;5.63;;;;;;;0.75;71.76;102398.41;4966116;28;20059;-58
2023/02/28 04:21:44;;;;;;;11.63;5.75;;;;;;;0.71;71.73;102405.28;4967826;28;20419;-59
2023/02/28 04:24:16;;;;;;;9.93;5.38;;;;;;;0.69;71.61;102396.66;4969039;28;20055;-61
2023/02/28 04:26:45;;;;;;;10.88;6.40;;;;;;;0.69;71.79;102398.38;4962947;28;20057;-61
2023/02/28 04:29:19;;;;;;;7.38;4.35;;;;;;;0.71;71.27;102401.84;4967785;28;21037;-60
2023/02/28 04:31:46;;;;;;;10.63;5.28;;;;;;;0.69;71.38;102407.00;4961645;28;20138;-58
2023/02/28 04:34:13;;;;;;;11.10;5.45;;;;;;;0.67;71.68;102400.06;4968233;28;20051;-59
2023/02/28 04:36:40;;;;;;;13.88;5.32;;;;;;;0.65;71.65;102407.81;4970372;28;20142;-58
2023/02/28 04:39:09;;;;;;;12.93;5.15;;;;;;;0.64;71.39;102405.22;4970563;28;20093;-58
2023/02/28 04:41:37;;;;;;;11.68;5.43;;;;;;;0.63;71.56;102412.16;4968897;28;20492;-61
2023/02/28 04:44:04;;;;;;;9.93;5.13;;;;;;;0.60;71.42;102406.91;4965936;28;20059;-60
2023/02/28 04:46:31;;;;;;;10.55;5.15;;;;;;;0.59;71.78;102399.13;4967158;28;20054;-59
2023/02/28 04:48:58;;;;;;;12.63;5.60;;;;;;;0.57;71.81;102401.69;4962209;28;20407;-59
2023/02/28 04:51:26;;;;;;;10.80;5.90;;;;;;;0.56;72.21;102409.47;4962348;28;20055;-58
2023/02/28 04:53:54;;;;;;;9.10;4.72;;;;;;;0.53;72.25;102412.00;4963479;28;20104;-59
2023/02/28 04:56:22;;;;;;;11.90;5.20;;;;;;;0.50;71.91;102412.84;4964242;28;20061;-60
2023/02/28 04:58:50;;;;;;;10.77;6.22;;;;;;;0.49;72.00;102405.91;4983057;28;20403;-58
2023/02/28 05:01:29;;;;;;;12.40;6.28;;;;;;;0.46;71.91;102417.13;4960978;28;20383;-58
2023/02/28 05:03:58;;;;;;;12.70;6.07;;;;;;;0.41;72.04;102412.75;4969881;28;20057;-60
2023/02/28 05:06:28;;;;;;;13.13;6.03;;;;;;;0.37;72.34;102419.63;4965817;28;20125;-57
2023/02/28 05:08:56;;;;;;;14.32;5.53;;;;;;;0.37;71.99;102423.94;4963842;28;20065;-61
2023/02/28 05:11:25;;;;;;;11.77;5.60;;;;;;;0.36;72.47;102424.75;4968417;28;20055;-61
2023/02/28 05:13:53;;;;;;;14.95;6.18;;;;;;;0.36;72.17;102428.25;4963661;28;20054;-62
2023/02/28 05:16:21;;;;;;;13.13;6.47;;;;;;;0.33;72.05;102416.97;4963199;28;20059;-58
2023/02/28 05:18:48;;;;;;;16.05;6.35;;;;;;;0.32;72.17;102423.88;4957225;28;20139;-59
2023/02/28 05:21:25;;;;;;;12.68;5.88;;;;;;;0.33;72.30;102428.19;4961172;28;20073;-57
2023/02/28 05:23:53;;;;;;;14.52;6.50;;;;;;;0.33;71.80;102429.91;4956704;28;20415;-61
2023/02/28 05:26:20;;;;;;;16.70;6.15;;;;;;;0.32;72.15;102428.19;4962863;28;20062;-59
2023/02/28 05:28:48;;;;;;;11.48;6.47;;;;;;;0.29;72.26;102433.31;4960610;28;20590;-58
2023/02/28 05:31:16;;;;;;;11.27;5.60;;;;;;;0.26;72.23;102434.13;4965557;28;20084;-61
2023/02/28 05:33:43;;;;;;;10.50;5.65;;;;;;;0.22;72.06;102428.03;4967242;28;20133;-61
2023/02/28 05:36:10;;;;;;;14.85;5.85;;;;;;;0.20;72.26;102434.06;4962146;28;20066;-62
2023/02/28 05:38:37;;;;;;;12.10;6.13;;;;;;;0.20;72.09;102431.50;4969405;28;20061;-61
2023/02/28 05:41:09;;;;;;;12.38;6.32;;;;;;;0.19;72.56;102432.34;4970157;28;20150;-61
2023/02/28 05:43:37;;;;;;;16.23;6.38;;;;;;;0.17;72.71;102434.91;4970298;28;20059;-60
2023/02/28 05:46:09;;;;;;;12.27;6.30;;;;;;;0.17;72.74;102439.22;4973263;28;20054;-61
2023/02/28 05:48:37;;;;;;;13.25;6.70;;;;;;;0.16;72.28;102435.75;4970925;28;20531;-61
2023/02/28 05:51:05;;;;;;;15.68;6.30;;;;;;;0.14;72.53;102442.66;4964037;28;20069;-61
2023/02/28 05:53:33;;;;;;;15.68;6.55;;;;;;;0.11;72.70;102440.00;4971248;28;20082;-61
2023/02/28 05:56:00;;;;;;;17.25;7.95;;;;;;;0.10;72.74;102440.84;4978503;28;20504;-62
2023/02/28 05:58:30;;;;;;;15.13;6.97;;;;;;;0.08;72.54;102439.94;4975157;28;20072;-60
2023/02/28 06:01:18;;;;;;;14.23;7.10;;;;;;;0.07;72.84;102445.13;4977396;28;20138;-60
2023/02/28 06:03:45;;;;;;;11.60;7.20;;;;;;;0.05;72.12;102444.25;4982436;28;20070;-61
2023/02/28 06:06:13;;;;;;;14.80;7.95;;;;;;;0.03;72.58;102443.34;4969840;28;21007;-61
2023/02/28 06:08:40;;;;;;;14.50;7.72;;;;;;;0.01;72.25;102442.47;4959859;28;20042;-60
2023/02/28 06:11:07;;;;;;;17.58;7.60;;;;;;;0.01;72.78;102448.50;4970675;28;20069;-56
2023/02/28 06:13:34;;;;;;;16.80;8.55;;;;;;;-0.01;72.65;102443.28;4965806;28;20063;-59
2023/02/28 06:16:01;;;;;;;15.63;7.90;;;;;;;-0.01;72.21;102447.59;4961339;28;20144;-61
2023/02/28 06:18:29;;;;;;;14.70;8.07;;;;;;;-0.03;72.57;102446.72;4970391;28;20057;-58
2023/02/28 06:20:56;;;;;;;16.55;8.27;;;;;;;-0.07;72.50;102450.97;4945041;28;20605;-61
2023/02/28 06:23:23;;;;;;;17.95;8.50;;;;;;;-0.07;72.65;102444.94;4967027;28;20069;-60
2023/02/28 06:25:50;;;;;;;17.35;8.52;;;;;;;-0.08;73.02;102457.00;4969058;28;20054;-58
2023/02/28 06:28:17;;;;;;;15.93;8.75;;;;;;;-0.08;72.32;102457.00;4967811;28;20047;-59
2023/02/28 06:30:45;;;;;;;20.95;9.25;;;;;;;-0.07;72.52;102460.47;4973078;28;20055;-61
2023/02/28 06:33:13;;;;;;;15.00;7.57;;;;;;;-0.05;72.88;102461.34;4958919;28;20598;-58
2023/02/28 06:35:43;;;;;;;15.25;8.63;;;;;;;-0.03;72.47;102465.72;4976178;28;20062;-58
2023/02/28 06:38:11;;;;;;;15.27;8.35;;;;;;;-0.01;72.44;102469.19;4970792;28;20135;-61
2023/02/28 06:40:38;;;;;;;14.88;7.68;;;;;;;0.02;72.19;102476.13;4970050;28;20549;-59
2023/02/28 06:43:05;;;;;;;14.55;7.70;;;;;;;0.03;71.95;102475.28;4975903;28;20053;-59
2023/02/28 06:45:32;;;;;;;16.35;8.23;;;;;;;0.05;72.30;102475.31;4973457;28;20550;-60
2023/02/28 06:48:00;;;;;;;19.42;9.18;;;;;;;0.07;72.13;102478.78;4973068;28;20042;-58
2023/02/28 06:50:29;;;;;;;18.77;8.75;;;;;;;0.09;72.03;102482.25;4965598;28;20055;-60
2023/02/28 06:52:56;;;;;;;21.67;9.20;;;;;;;0.10;72.16;102477.13;4963295;28;20440;-59
2023/02/28 06:55:23;;;;;;;15.05;7.53;;;;;;;0.12;71.86;102482.31;4968462;28;20445;-60
2023/02/28 06:57:50;;;;;;;16.48;7.80;;;;;;;0.14;71.74;102478.91;4974336;28;20542;-60
2023/02/28 07:00:18;;;;;;;15.15;8.32;;;;;;;0.17;71.94;102486.69;4979472;28;20061;-61
2023/02/28 07:02:45;;;;;;;18.42;8.57;;;;;;;0.18;71.58;102484.97;4980193;28;20133;-59
2023/02/28 07:05:13;;;;;;;17.23;8.80;;;;;;;0.22;71.46;102491.94;4972358;28;20046;-59
2023/02/28 07:07:43;;;;;;;20.35;8.60;;;;;;;0.24;71.64;102483.34;4977780;28;20611;-61
2023/02/28 07:10:11;;;;;;;19.40;8.63;;;;;;;0.30;71.56;102486.88;4973304;28;20065;-60
2023/02/28 07:12:39;;;;;;;14.82;7.10;;;;;;;0.33;71.04;102492.97;4983027;28;20066;-60
2023/02/28 07:15:06;;;;;;;14.65;8.10;;;;;;;0.36;71.38;102479.16;4973549;28;20051;-59
2023/02/28 07:17:34;;;;;;;14.90;7.82;;;;;;;0.38;71.42;102482.66;4983961;28;20142;-55
2023/02/28 07:20:01;;;;;;;13.75;7.63;;;;;;;0.40;71.34;102488.72;4978141;28;20137;-59
2023/02/28 07:22:28;;;;;;;18.00;8.07;;;;;;;0.44;71.26;102493.97;4978972;28;20055;-56
2023/02/28 07:24:55;;;;;;;16.05;8.48;;;;;;;0.47;70.92;102488.81;4987383;28;20054;-59
2023/02/28 07:27:25;;;;;;;17.83;8.80;;;;;;;0.50;71.38;102485.41;4972446;28;20133;-58
2023/02/28 07:29:53;;;;;;;15.65;8.45;;;;;;;0.52;70.82;102488.88;4978994;28;20058;-60
2023/02/28 07:32:20;;;;;;;13.88;8.10;;;;;;;0.58;70.74;102490.66;4983436;28;20065;-61
2023/02/28 07:34:48;;;;;;;15.65;7.20;;;;;;;0.61;70.41;102493.31;4979711;28;20050;-61
2023/02/28 07:37:15;;;;;;;14.95;7.63;;;;;;;0.66;70.52;102500.28;4980139;28;20055;-60
2023/02/28 07:39:42;;;;;;;17.40;7.78;;;;;;;0.70;70.56;102503.78;4977579;28;20058;-60
2023/02/28 07:42:11;;;;;;;14.32;7.95;;;;;;;0.74;70.58;102501.25;4972990;28;20134;-60
2023/02/28 07:44:40;;;;;;;14.85;7.97;;;;;;;0.78;70.32;102499.56;4978477;28;20065;-59
2023/02/28 07:47:08;;;;;;;15.70;7.57;;;;;;;0.85;70.20;102498.75;4980197;28;20533;-60
2023/02/28 07:49:36;;;;;;;24.70;8.13;;;;;;;0.88;70.30;102498.81;4977692;28;20413;-61
2023/02/28 07:52:04;;;;;;;17.95;8.63;;;;;;;0.93;69.95;102504.91;4981089;28;20141;-61
2023/02/28 07:54:32;;;;;;;21.90;9.60;;;;;;;0.99;69.86;102507.59;4990696;28;20066;-61
2023/02/28 07:56:59;;;;;;;19.17;8.60;;;;;;;1.03;69.69;102503.28;4973080;28;20059;-58
2023/02/28 07:59:26;;;;;;;15.13;7.85;;;;;;;1.08;69.54;102501.63;4976208;28;20142;-58
2023/02/28 08:01:57;;;;;;;18.17;7.45;;;;;;;1.15;69.47;102505.16;4969001;28;20149;-61
2023/02/28 08:04:24;;;;;;;17.55;7.38;;;;;;;1.20;69.39;102506.06;4973970;28;20058;-60
2023/02/28 08:06:52;;;;;;;15.82;6.75;;;;;;;1.24;69.28;102505.22;4977197;28;20051;-60
2023/02/28 08:09:20;;;;;;;13.10;5.95;;;;;;;1.27;68.92;102505.28;4996150;28;20141;-57
2023/02/28 08:11:47;;;;;;;13.45;6.30;;;;;;;1.34;69.02;102508.78;4978629;28;20059;-60
2023/02/28 08:14:14;;;;;;;13.23;6.45;;;;;;;1.38;68.88;102503.63;4976818;28;20147;-57
2023/02/28 08:16:42;;;;;;;8.68;4.97;;;;;;;1.43;68.87;102504.53;4973600;28;20101;-59
2023/02/28 08:19:09;;;;;;;11.55;5.50;;;;;;;1.47;68.73;102501.13;4979724;28;20133;-59
2023/02/28 08:21:37;;;;;;;11.32;5.78;;;;;;;1.54;68.58;102508.97;4984548;28;20134;-59
2023/02/28 08:24:04;;;;;;;8.95;4.80;;;;;;;1.58;68.38;102500.38;4975902;28;20508;-60
2023/02/28 08:26:31;;;;;;;14.65;4.55;;;;;;;1.64;68.13;102505.59;4986430;28;20058;-62
2023/02/28 08:28:59;;;;;;;9.05;4.18;;;;;;;1.69;68.25;102503.91;4978506;28;20077;-57
2023/02/28 08:31:27;;;;;;;10.98;4.00;;;;;;;1.72;67.78;102497.00;4978149;28;20064;-60
2023/02/28 08:33:58;;;;;;;10.02;3.80;;;;;;;1.77;67.63;102497.91;4963273;28;21244;-61
2023/02/28 08:36:28;;;;;;;6.28;3.75;;;;;;;1.82;66.67;102499.69;4968761;28;20539;-58
2023/02/28 08:38:56;;;;;;;9.65;3.45;;;;;;;1.88;66.61;102508.38;4974803;28;20054;-59
2023/02/28 08:41:23;;;;;;;9.15;2.90;;;;;;;1.94;66.29;102503.22;4974058;28;20145;-61
2023/02/28 08:43:50;;;;;;;4.32;2.83;;;;;;;1.99;65.83;102501.53;4972490;28;20054;-60
2023/02/28 08:46:18;;;;;;;10.68;3.42;;;;;;;2.06;66.22;102504.16;4961028;28;20069;-60
2023/02/28 08:48:45;;;;;;;6.57;2.35;;;;;;;2.10;64.88;102509.38;4968855;28;20109;-58
2023/02/28 08:51:18;;;;;;;3.30;1.90;;;;;;;2.19;61.73;102503.38;4969053;28;20680;-59
2023/02/28 08:53:45;;;;;;;4.82;2.17;;;;;;;2.26;62.93;102506.03;4973962;28;20082;-57
2023/02/28 08:56:16;;;;;;;5.57;2.80;;;;;;;2.31;62.81;102506.06;4966283;28;20073;-59
2023/02/28 08:58:43;;;;;;;4.60;2.33;;;;;;;2.37;62.49;102505.22;4964707;28;20166;-60
2023/02/28 09:01:13;;;;;;;5.82;2.13;;;;;;;2.42;62.69;102509.56;4969233;28;20056;-60
2023/02/28 09:03:41;;;;;;;4.32;2.10;;;;;;;2.50;62.11;102505.28;4975401;28;20650;-59
2023/02/28 09:06:09;;;;;;;4.13;2.30;;;;;;;2.57;62.00;102508.78;4973284;28;20055;-62
2023/02/28 09:08:37;;;;;;;3.92;1.80;;;;;;;2.61;61.29;102507.94;4976774;28;20054;-58
2023/02/28 09:11:04;;;;;;;3.38;1.30;;;;;;;2.67;58.70;102504.47;4988487;28;20055;-60
2023/02/28 09:13:32;;;;;;;4.32;1.55;;;;;;;2.71;60.46;102508.84;4967894;28;20884;-61
2023/02/28 09:16:00;;;;;;;5.95;2.63;;;;;;;2.77;61.44;102506.25;4972018;28;20663;-61
2023/02/28 09:18:28;;;;;;;4.60;2.00;;;;;;;2.83;60.33;102514.06;4973746;28;20603;-60
2023/02/28 09:20:55;;;;;;;4.72;1.90;;;;;;;2.91;61.35;102511.50;4975040;28;20050;-61
2023/02/28 09:23:23;;;;;;;3.88;1.98;;;;;;;2.96;61.14;102505.44;4985836;28;20133;-59
2023/02/28 09:25:54;;;;;;;3.67;1.73;;;;;;;3.00;59.94;102506.31;4979674;28;20051;-59
2023/02/28 09:28:22;;;;;;;3.75;1.90;;;;;;;3.07;60.76;102502.88;4971410;28;20055;-57
2023/02/28 09:30:51;;;;;;;3.58;1.98;;;;;;;3.08;55.18;102504.59;4978527;28;20054;-59
2023/02/28 09:33:22;;;;;;;4.05;2.03;;;;;;;3.14;58.31;102507.22;4968358;28;20067;-60
2023/02/28 09:35:50;;;;;;;4.80;2.75;;;;;;;3.21;58.91;102510.72;4986262;28;20058;-58
2023/02/28 09:38:18;;;;;;;6.13;2.35;;;;;;;3.23;59.56;102507.22;4968136;28;20525;-58
2023/02/28 09:40:53;;;;;;;3.88;2.67;;;;;;;3.28;59.84;102502.03;4971856;28;20146;-59
2023/02/28 09:43:24;;;;;;;4.47;1.75;;;;;;;3.35;60.12;102500.31;4974387;28;20642;-59
2023/02/28 09:46:02;;;;;;;5.97;2.70;;;;;;;3.39;60.43;102508.13;4976845;28;20059;-59
2023/02/28 09:48:35;;;;;;;4.15;2.35;;;;;;;3.46;60.14;102509.84;4965624;28;20053;-60
2023/02/28 09:51:16;;;;;;;5.72;2.50;;;;;;;3.53;59.38;102510.75;4978639;28;20072;-60
2023/02/28 09:53:43;;;;;;;5.05;2.28;;;;;;;3.58;58.23;102510.75;4970060;28;20050;-58
2023/02/28 09:56:25;;;;;;;5.85;2.13;;;;;;;3.64;57.57;102513.34;4970443;28;20063;-58
2023/02/28 09:59:02;;;;;;;5.82;2.22;;;;;;;3.71;55.72;102513.34;4975272;28;20054;-59
2023/02/28 10:01:51;;;;;;;4.78;2.20;;;;;;;3.83;57.23;102514.19;4973268;28;20064;-61
2023/02/28 10:04:37;;;;;;;7.00;2.33;;;;;;;3.88;57.61;102513.34;4974032;28;20459;-57
2023/02/28 10:07:18;;;;;;;4.47;1.67;;;;;;;3.96;57.21;102511.59;4977899;28;20449;-58
2023/02/28 10:09:47;;;;;;;4.40;2.30;;;;;;;3.97;52.88;102508.13;4981187;28;20056;-58
2023/02/28 10:12:16;;;;;;;4.13;1.90;;;;;;;4.03;52.97;102509.84;4979536;28;20051;-59
2023/02/28 10:14:46;;;;;;;4.35;2.22;;;;;;;4.10;56.00;102511.56;4976522;28;20055;-59
2023/02/28 10:17:19;;;;;;;4.50;2.15;;;;;;;4.13;55.39;102514.16;4980724;28;20129;-60
2023/02/28 10:20:01;;;;;;;3.22;1.80;;;;;;;4.22;55.60;102508.06;4979617;28;20571;-61
2023/02/28 10:23:07;;;;;;;3.60;1.95;;;;;;;4.29;55.89;102507.19;4974959;28;20146;-58
2023/02/28 10:25:36;;;;;;;3.28;1.80;;;;;;;4.36;54.98;102502.81;4957240;28;20062;-60
2023/02/28 10:28:09;;;;;;;4.60;2.38;;;;;;;4.43;56.01;102508.00;4973653;28;20529;-59
2023/02/28 10:30:48;;;;;;;6.25;1.95;;;;;;;4.45;52.46;102503.63;4984281;28;20047;-59
2023/02/28 10:33:23;;;;;;;5.28;2.65;;;;;;;4.48;49.03;102508.84;4975274;28;20474;-58
2023/02/28 10:35:51;;;;;;;5.97;1.73;;;;;;;4.46;51.32;102501.94;4971043;28;20141;-60
2023/02/28 10:38:27;;;;;;;4.30;2.22;;;;;;;4.54;53.60;102513.16;4976608;28;20769;-60
2023/02/28 10:41:09;;;;;;;4.93;2.03;;;;;;;4.64;51.22;102509.69;4971782;28;20643;-59
2023/02/28 10:43:39;;;;;;;7.93;2.30;;;;;;;4.77;53.39;102511.34;4977306;28;20064;-58
2023/02/28 10:46:13;;;;;;;4.25;2.15;;;;;;;4.89;53.69;102504.31;4974920;28;20606;-58
2023/02/28 10:48:49;;;;;;;5.03;1.95;;;;;;;5.01;53.49;102515.56;4981104;28;20080;-58
2023/02/28 10:51:18;;;;;;;4.78;1.90;;;;;;;5.07;52.27;102507.69;4973994;28;20141;-60
2023/02/28 10:53:54;;;;;;;4.18;2.22;;;;;;;5.22;53.98;102511.09;4972426;28;20138;-57
2023/02/28 10:56:29;;;;;;;9.13;2.13;;;;;;;5.33;53.22;102502.31;4972582;28;20066;-58
2023/02/28 10:59:02;;;;;;;3.25;1.95;;;;;;;5.27;47.20;102497.16;4974324;28;20130;-59
2023/02/28 11:01:29;;;;;;;4.28;2.05;;;;;;;5.24;51.29;102493.69;4976772;28;20073;-58
2023/02/28 11:03:57;;;;;;;4.45;2.25;;;;;;;5.37;52.59;102490.09;4975315;28;20767;-58
2023/02/28 11:06:33;;;;;;;3.53;2.35;;;;;;;5.51;49.37;102488.25;4972326;28;20655;-60
2023/02/28 11:09:04;;;;;;;3.50;1.98;;;;;;;5.60;49.42;102479.47;4966982;28;20063;-58
2023/02/28 11:11:42;;;;;;;5.68;2.22;;;;;;;5.74;51.67;102476.72;4970087;28;20063;-61
2023/02/28 11:14:18;;;;;;;3.92;2.55;;;;;;;5.85;48.60;102469.63;4978524;28;20078;-61
2023/02/28 11:16:46;;;;;;;5.15;2.13;;;;;;;6.02;52.01;102472.13;4971065;28;20047;-59
2023/02/28 11:19:22;;;;;;;4.40;2.30;;;;;;;6.17;48.32;102469.38;4969504;28;20415;-58
2023/02/28 11:21:59;;;;;;;3.92;2.78;;;;;;;6.32;49.00;102470.94;4966038;28;20730;-58
2023/02/28 11:24:29;;;;;;;6.63;2.88;;;;;;;6.38;47.58;102464.75;4974312;28;20066;-60
2023/02/28 11:26:57;;;;;;;3.78;1.90;;;;;;;6.62;50.43;102460.94;4967913;28;20065;-60
2023/02/28 11:29:29;;;;;;;4.82;2.65;;;;;;;6.71;47.45;102472.19;4973740;28;20054;-61
2023/02/28 11:32:11;;;;;;;8.65;2.60;;;;;;;6.77;46.27;102461.63;4974907;28;20057;-60
2023/02/28 11:34:40;;;;;;;5.90;3.05;;;;;;;6.76;46.33;102466.91;4977483;28;20054;-60
2023/02/28 11:37:19;;;;;;;5.43;2.35;;;;;;;6.91;47.50;102466.66;4970432;28;20078;-61
2023/02/28 11:39:46;;;;;;;8.50;2.72;;;;;;;6.95;44.68;102464.88;4973715;28;20490;-58
2023/02/28 11:42:35;;;;;;;6.00;2.88;;;;;;;7.02;44.98;102464.75;4974545;28;20242;-59
2023/02/28 11:45:07;;;;;;;6.25;2.50;;;;;;;7.10;44.62;102467.25;4977317;28;20161;-60
2023/02/28 11:47:55;;;;;;;5.35;2.95;;;;;;;7.30;46.45;102459.09;4976305;28;20058;-59